Time;durP1;ratioP1;P1;durP2;ratioP2;P2;SDS_P1;SDS_P2;PMS_P1;PMS_P2;Temp;Humidity;BMP_temperature;BMP_pressure;BME280_temperature;BME280_humidity;BME280_pressure;Samples;Min_cycle;Max_cycle;Signal;HPM_P1;HPM_P2
2022/09/26 00:01:21;;;;;;;15.82;14.82;;;15.80;71.70;;;;;;5030565;28;20038;-76
2022/09/26 00:03:49;;;;;;;16.08;15.02;;;15.90;71.90;;;;;;5031264;28;20021;-77
2022/09/26 00:06:16;;;;;;;14.32;13.43;;;15.90;71.70;;;;;;5014989;28;20025;-76
2022/09/26 00:08:43;;;;;;;15.20;14.10;;;15.90;71.60;;;;;;5031258;28;20100;-76
2022/09/26 00:11:11;;;;;;;17.40;16.10;;;16.00;71.60;;;;;;5029970;28;20025;-76
2022/09/26 00:13:38;;;;;;;16.10;15.10;;;16.10;71.60;;;;;;5014752;28;20097;-76
2022/09/26 00:16:04;;;;;;;16.63;15.63;;;16.10;71.10;;;;;;5031413;28;20418;-77
2022/09/26 00:18:30;;;;;;;17.25;16.15;;;16.10;71.20;;;;;;5030897;28;20494;-77
2022/09/26 00:21:07;;;;;;;16.17;15.18;;;16.10;71.40;;;;;;5031908;28;20029;-76
2022/09/26 00:23:33;;;;;;;15.73;14.65;;;16.10;71.40;;;;;;5032003;28;20032;-77
2022/09/26 00:25:59;;;;;;;15.40;14.43;;;16.10;71.40;;;;;;5031669;28;20493;-77
2022/09/26 00:28:26;;;;;;;15.18;14.30;;;16.10;71.50;;;;;;5030368;28;20061;-76
2022/09/26 00:30:52;;;;;;;16.17;15.15;;;16.10;71.50;;;;;;5023560;28;20033;-76
2022/09/26 00:33:18;;;;;;;17.00;15.77;;;16.00;71.70;;;;;;5011348;28;20435;-76
2022/09/26 00:35:51;;;;;;;15.35;14.40;;;16.00;71.70;;;;;;5012153;28;20026;-76
2022/09/26 00:38:17;;;;;;;15.80;14.80;;;16.00;71.70;;;;;;5011956;28;20061;-76
2022/09/26 00:40:43;;;;;;;15.63;14.52;;;16.00;71.80;;;;;;5010838;28;20382;-76
2022/09/26 00:43:38;;;;;;;16.38;15.35;;;15.90;71.90;;;;;;5009489;28;20072;-76
2022/09/26 00:46:29;;;;;;;17.50;16.50;;;15.80;72.20;;;;;;4990601;28;20033;-76
2022/09/26 00:49:11;;;;;;;17.13;16.13;;;15.80;72.20;;;;;;5007517;28;20057;-76
2022/09/26 00:51:38;;;;;;;17.52;16.42;;;15.80;72.20;;;;;;5010648;28;20034;-76
2022/09/26 00:54:05;;;;;;;18.95;17.45;;;15.80;72.90;;;;;;5010429;28;20124;-77
2022/09/26 00:56:33;;;;;;;18.63;17.30;;;15.80;72.20;;;;;;4994366;28;20049;-76
2022/09/26 00:59:27;;;;;;;21.60;20.10;;;15.80;72.60;;;;;;5010242;28;20057;-76
2022/09/26 01:01:54;;;;;;;24.30;22.85;;;15.70;72.80;;;;;;4979424;28;20037;-76
2022/09/26 01:04:21;;;;;;;21.42;19.98;;;15.70;72.90;;;;;;4994343;28;20037;-77
2022/09/26 01:06:48;;;;;;;20.63;19.52;;;15.60;72.80;;;;;;5011713;28;20026;-76
2022/09/26 01:09:14;;;;;;;20.45;19.13;;;15.60;72.90;;;;;;5010369;28;20030;-76
2022/09/26 01:11:40;;;;;;;21.05;19.85;;;15.60;72.80;;;;;;5010148;28;20066;-76
2022/09/26 01:14:08;;;;;;;20.55;19.35;;;15.70;72.70;;;;;;5009022;28;20028;-77
2022/09/26 01:16:35;;;;;;;20.40;19.25;;;15.60;72.60;;;;;;5011062;28;20042;-77
2022/09/26 01:19:02;;;;;;;20.67;19.30;;;15.60;72.60;;;;;;5010435;28;20025;-77
2022/09/26 01:22:07;;;;;;;24.17;22.77;;;15.60;72.70;;;;;;4994154;28;20390;-76
2022/09/26 01:24:47;;;;;;;22.42;21.13;;;15.50;73.10;;;;;;4953588;28;20043;-76
2022/09/26 01:27:39;;;;;;;20.85;19.35;;;15.50;72.90;;;;;;4954070;28;20480;-77
2022/09/26 01:30:08;;;;;;;19.02;17.92;;;15.50;73.00;;;;;;4861817;29;20044;-77
2022/09/26 01:32:49;;;;;;;18.73;17.55;;;15.60;72.90;;;;;;4875063;29;20120;-77
2022/09/26 01:35:30;;;;;;;18.88;17.52;;;15.60;72.80;;;;;;4875176;29;20045;-76
2022/09/26 01:38:21;;;;;;;19.70;18.50;;;15.50;72.70;;;;;;4876612;29;20364;-76
2022/09/26 01:41:11;;;;;;;19.63;18.08;;;15.50;73.00;;;;;;4878916;29;20546;-76
2022/09/26 01:44:28;;;;;;;18.27;17.20;;;15.40;73.10;;;;;;4856337;29;20475;-76
2022/09/26 01:47:14;;;;;;;18.52;17.33;;;15.40;73.10;;;;;;4836968;29;20152;-76
2022/09/26 01:49:40;;;;;;;17.33;16.02;;;15.40;72.90;;;;;;4844602;29;20049;-77
2022/09/26 01:52:18;;;;;;;17.35;16.15;;;15.40;72.90;;;;;;4860228;29;20491;-76
2022/09/26 01:55:09;;;;;;;18.17;16.98;;;15.50;72.80;;;;;;4875507;29;20598;-76
2022/09/26 01:57:43;;;;;;;18.48;17.38;;;15.50;72.80;;;;;;4861141;29;20057;-76
2022/09/26 02:00:11;;;;;;;18.45;17.45;;;15.40;72.70;;;;;;4862627;29;20049;-77
2022/09/26 02:02:42;;;;;;;18.58;17.50;;;15.30;72.90;;;;;;4878573;29;20106;-76
2022/09/26 02:05:26;;;;;;;18.08;16.77;;;15.30;73.90;;;;;;4878688;29;20029;-77
2022/09/26 02:08:04;;;;;;;18.10;16.98;;;15.30;73.30;;;;;;4947925;28;20069;-76
2022/09/26 02:10:36;;;;;;;17.10;15.90;;;15.30;73.20;;;;;;4957147;28;20079;-77
2022/09/26 02:13:09;;;;;;;16.85;15.65;;;15.30;73.00;;;;;;4957374;28;20030;-76
2022/09/26 02:15:36;;;;;;;17.02;15.90;;;15.30;72.90;;;;;;4940670;28;20046;-76
2022/09/26 02:18:13;;;;;;;16.63;15.73;;;15.20;72.90;;;;;;4957433;28;20520;-75
2022/09/26 02:20:42;;;;;;;18.75;17.65;;;15.10;73.20;;;;;;4941251;28;20042;-75
2022/09/26 02:23:08;;;;;;;17.10;16.15;;;15.10;73.30;;;;;;4997055;28;20038;-75
2022/09/26 02:25:36;;;;;;;18.20;16.77;;;15.10;73.50;;;;;;5013206;28;20041;-75
2022/09/26 02:28:02;;;;;;;17.05;16.05;;;15.00;73.40;;;;;;5017738;28;20386;-75
2022/09/26 02:30:28;;;;;;;16.83;15.82;;;15.00;73.20;;;;;;4999688;28;20041;-75
2022/09/26 02:32:54;;;;;;;18.42;17.23;;;15.00;73.00;;;;;;5016537;28;20026;-75
2022/09/26 02:38:06;;;;;;;18.20;16.92;;;15.00;73.90;;;;;;5025844;28;20045;-75
2022/09/26 02:40:36;;;;;;;19.15;17.73;;;15.10;73.00;;;;;;5016067;28;20032;-75
2022/09/26 02:43:23;;;;;;;18.27;16.80;;;15.10;73.10;;;;;;5032624;28;20029;-75
2022/09/26 02:46:10;;;;;;;17.75;16.65;;;15.10;72.80;;;;;;5034314;28;20405;-75
2022/09/26 02:48:46;;;;;;;19.63;18.38;;;15.00;72.90;;;;;;5038897;28;20041;-75
2022/09/26 02:51:35;;;;;;;19.70;18.40;;;15.00;73.50;;;;;;5033999;28;20021;-76
2022/09/26 02:54:19;;;;;;;18.67;17.52;;;15.00;73.20;;;;;;5017938;28;20034;-75
2022/09/26 02:56:54;;;;;;;18.27;17.08;;;15.00;73.00;;;;;;5033847;28;20046;-75
2022/09/26 02:59:41;;;;;;;17.77;16.58;;;14.90;73.00;;;;;;5032567;28;20053;-75
2022/09/26 03:02:14;;;;;;;16.67;15.63;;;14.90;73.00;;;;;;5033217;28;20030;-75
2022/09/26 03:04:52;;;;;;;16.70;15.60;;;14.90;73.00;;;;;;5032487;28;20033;-75
2022/09/26 03:07:23;;;;;;;16.63;15.63;;;14.90;72.90;;;;;;5033528;28;20490;-75
2022/09/26 03:09:49;;;;;;;16.77;15.63;;;14.90;72.90;;;;;;5015872;28;20029;-76
2022/09/26 03:12:15;;;;;;;15.73;14.73;;;14.90;72.70;;;;;;5016150;28;20029;-75
2022/09/26 03:14:41;;;;;;;15.93;14.80;;;14.90;72.80;;;;;;5015706;28;20038;-75
2022/09/26 03:17:08;;;;;;;17.73;16.42;;;14.90;72.90;;;;;;5031817;28;20041;-75
2022/09/26 03:19:46;;;;;;;17.80;16.77;;;15.00;72.90;;;;;;5014756;28;20347;-75
2022/09/26 03:22:13;;;;;;;18.98;17.58;;;14.90;73.00;;;;;;5016533;28;20073;-75
2022/09/26 03:24:40;;;;;;;18.48;17.27;;;14.90;73.10;;;;;;5015182;28;20421;-75
2022/09/26 03:27:06;;;;;;;17.50;16.50;;;14.90;73.10;;;;;;5015853;28;20022;-75
2022/09/26 03:29:33;;;;;;;19.67;18.42;;;14.90;73.00;;;;;;5015305;28;20034;-75
2022/09/26 03:31:59;;;;;;;19.80;18.65;;;14.90;73.10;;;;;;5064643;28;20030;-76
2022/09/26 03:34:26;;;;;;;19.00;17.80;;;14.90;73.20;;;;;;5033079;28;20501;-75
2022/09/26 03:36:52;;;;;;;19.30;18.00;;;14.90;73.20;;;;;;5064818;28;20033;-76
2022/09/26 03:39:19;;;;;;;19.33;18.23;;;14.90;73.30;;;;;;5064474;28;20052;-75
2022/09/26 03:41:45;;;;;;;19.10;17.92;;;14.90;73.50;;;;;;5032888;28;20029;-75
2022/09/26 03:44:11;;;;;;;19.27;17.73;;;14.80;73.30;;;;;;5038474;28;20029;-75
2022/09/26 03:46:37;;;;;;;18.63;17.30;;;14.80;73.30;;;;;;5052361;28;20033;-75
2022/09/26 03:49:03;;;;;;;19.77;18.50;;;14.80;73.20;;;;;;5034221;28;20050;-75
2022/09/26 03:51:29;;;;;;;18.45;17.15;;;14.80;73.50;;;;;;5031425;28;20045;-75
2022/09/26 03:53:56;;;;;;;19.00;17.67;;;14.70;73.40;;;;;;5015087;28;20036;-75
2022/09/26 03:56:22;;;;;;;18.35;17.08;;;14.70;73.50;;;;;;5032660;28;20033;-75
2022/09/26 03:58:48;;;;;;;16.83;15.95;;;14.80;73.40;;;;;;5032389;28;20044;-75
2022/09/26 04:01:16;;;;;;;16.23;15.23;;;14.70;73.10;;;;;;5030017;28;20029;-75
2022/09/26 04:03:43;;;;;;;16.30;15.45;;;14.70;73.30;;;;;;5032561;28;20036;-75
2022/09/26 04:06:09;;;;;;;16.45;15.23;;;14.70;73.30;;;;;;5030865;28;20052;-76
2022/09/26 04:08:36;;;;;;;16.70;15.40;;;14.70;73.10;;;;;;5014903;28;20056;-76
2022/09/26 04:11:03;;;;;;;15.98;14.98;;;14.70;73.20;;;;;;5031283;28;20033;-75
2022/09/26 04:13:29;;;;;;;15.85;14.85;;;14.70;72.90;;;;;;5014829;28;20045;-76
2022/09/26 04:15:56;;;;;;;15.07;14.00;;;14.70;72.90;;;;;;5030436;28;20033;-76
2022/09/26 04:18:22;;;;;;;16.08;15.15;;;14.70;72.90;;;;;;5014626;28;20038;-75
2022/09/26 04:20:48;;;;;;;16.75;15.38;;;14.60;73.10;;;;;;5014178;28;20029;-75
2022/09/26 04:23:14;;;;;;;16.48;15.57;;;14.60;73.20;;;;;;5013489;28;20192;-76
2022/09/26 04:25:40;;;;;;;15.15;14.30;;;14.60;73.50;;;;;;5032525;28;20493;-75
2022/09/26 04:28:07;;;;;;;17.85;16.52;;;14.50;73.40;;;;;;5014257;28;20049;-75
2022/09/26 04:30:33;;;;;;;17.98;16.95;;;14.60;73.40;;;;;;5031431;28;20026;-76
2022/09/26 04:32:59;;;;;;;19.27;18.08;;;14.60;73.50;;;;;;5031842;28;20025;-75
2022/09/26 04:35:26;;;;;;;17.83;16.70;;;14.60;73.60;;;;;;5030539;28;20040;-75
2022/09/26 04:37:52;;;;;;;18.50;17.25;;;14.60;73.70;;;;;;5031847;28;20025;-75
2022/09/26 04:40:18;;;;;;;18.30;17.20;;;14.60;73.60;;;;;;5030297;28;20050;-75
2022/09/26 04:42:44;;;;;;;17.38;16.17;;;14.60;73.80;;;;;;5013926;28;20033;-75
2022/09/26 04:45:10;;;;;;;17.48;16.27;;;14.60;73.80;;;;;;5045013;28;20029;-76
2022/09/26 04:47:36;;;;;;;18.25;16.98;;;14.60;73.80;;;;;;5045213;28;20052;-76
2022/09/26 04:50:02;;;;;;;18.35;17.13;;;14.60;73.60;;;;;;5031293;28;20041;-75
2022/09/26 04:52:28;;;;;;;17.60;16.23;;;14.60;73.90;;;;;;5031691;28;20048;-75
2022/09/26 04:54:54;;;;;;;17.63;16.23;;;14.60;74.00;;;;;;5013786;28;20042;-75
2022/09/26 04:57:20;;;;;;;16.48;15.35;;;14.60;73.80;;;;;;5030523;28;20045;-75
2022/09/26 04:59:46;;;;;;;16.25;15.13;;;14.60;73.80;;;;;;5030151;28;20022;-75
2022/09/26 05:02:13;;;;;;;16.40;15.30;;;14.60;73.90;;;;;;5030751;28;20056;-75
2022/09/26 05:04:39;;;;;;;19.52;18.20;;;14.60;73.90;;;;;;5029808;28;20033;-75
2022/09/26 05:07:05;;;;;;;15.13;14.18;;;14.50;74.00;;;;;;5031408;28;20025;-75
2022/09/26 05:09:31;;;;;;;15.25;14.35;;;14.50;74.20;;;;;;5031328;28;20022;-75
2022/09/26 05:11:57;;;;;;;16.38;15.35;;;14.50;74.30;;;;;;5031269;28;20378;-76
2022/09/26 05:14:24;;;;;;;17.10;16.05;;;14.40;74.50;;;;;;5031168;28;20025;-75
2022/09/26 05:16:50;;;;;;;18.08;16.88;;;14.40;74.40;;;;;;5030550;28;20030;-75
2022/09/26 05:19:16;;;;;;;16.67;15.68;;;14.40;74.50;;;;;;5029541;28;20041;-75
2022/09/26 05:21:42;;;;;;;15.52;14.63;;;14.50;74.30;;;;;;5029859;28;20036;-75
2022/09/26 05:26:53;;;;;;;16.65;15.43;;;14.30;74.60;;;;;;5032193;28;20393;-75
2022/09/26 05:29:19;;;;;;;16.00;15.05;;;14.30;74.80;;;;;;5030015;28;20041;-75
2022/09/26 05:31:46;;;;;;;16.52;15.52;;;14.30;74.80;;;;;;5012755;28;20387;-75
2022/09/26 05:34:12;;;;;;;16.83;15.68;;;14.30;74.70;;;;;;5027605;28;20034;-75
2022/09/26 05:36:38;;;;;;;15.43;14.38;;;14.20;74.70;;;;;;5013552;28;20029;-75
2022/09/26 05:39:05;;;;;;;15.68;14.57;;;14.20;75.10;;;;;;5029868;28;20068;-75
2022/09/26 05:41:32;;;;;;;14.00;13.20;;;14.10;75.10;;;;;;5029857;28;20041;-75
2022/09/26 05:43:58;;;;;;;16.23;15.13;;;14.20;75.00;;;;;;5033911;28;20028;-75
2022/09/26 05:46:25;;;;;;;19.75;18.33;;;14.10;74.90;;;;;;5049219;28;20029;-75
2022/09/26 05:48:52;;;;;;;17.17;16.02;;;14.10;75.10;;;;;;5033726;28;20435;-75
2022/09/26 05:51:19;;;;;;;19.38;18.15;;;14.20;75.00;;;;;;5029765;28;20382;-75
2022/09/26 05:53:46;;;;;;;21.58;20.48;;;14.20;74.90;;;;;;5030848;28;20026;-75
2022/09/26 05:56:13;;;;;;;23.85;22.08;;;14.20;74.80;;;;;;5029647;28;20479;-75
2022/09/26 05:58:39;;;;;;;19.27;18.08;;;14.20;74.60;;;;;;5027530;28;20044;-75
2022/09/26 06:01:13;;;;;;;19.00;17.90;;;14.10;74.70;;;;;;5029053;28;20399;-75
2022/09/26 06:03:43;;;;;;;21.50;20.17;;;14.10;74.70;;;;;;5029088;28;20025;-75
2022/09/26 06:06:11;;;;;;;20.63;19.42;;;14.10;74.70;;;;;;5030845;28;20033;-75
2022/09/26 06:08:37;;;;;;;17.02;15.98;;;14.10;75.00;;;;;;5013507;28;20026;-76
2022/09/26 06:11:05;;;;;;;17.67;16.67;;;14.10;74.70;;;;;;5030811;28;20029;-75
2022/09/26 06:13:32;;;;;;;17.27;16.17;;;14.10;74.60;;;;;;5013264;28;20025;-76
2022/09/26 06:16:06;;;;;;;17.20;16.00;;;14.00;74.60;;;;;;5012668;28;20033;-76
2022/09/26 06:18:35;;;;;;;16.80;15.77;;;14.00;75.40;;;;;;5012802;28;20034;-75
2022/09/26 06:21:05;;;;;;;17.70;16.60;;;14.00;74.60;;;;;;5029338;28;20459;-75
2022/09/26 06:23:33;;;;;;;17.23;16.23;;;14.00;74.60;;;;;;5013981;28;20036;-75
2022/09/26 06:25:59;;;;;;;16.63;15.55;;;14.00;74.60;;;;;;5017094;28;20026;-75
2022/09/26 06:28:26;;;;;;;15.60;14.65;;;14.00;74.60;;;;;;5016580;28;20052;-75
2022/09/26 06:30:53;;;;;;;15.30;14.10;;;14.00;74.80;;;;;;5014293;28;20037;-75
2022/09/26 06:33:19;;;;;;;15.43;14.27;;;13.90;74.80;;;;;;5015053;28;20042;-76
2022/09/26 06:35:45;;;;;;;16.63;15.30;;;13.90;74.80;;;;;;5016593;28;20498;-76
2022/09/26 06:38:11;;;;;;;18.52;17.42;;;14.00;75.10;;;;;;5034107;28;20033;-75
2022/09/26 06:40:37;;;;;;;17.98;17.00;;;13.90;74.90;;;;;;5032616;28;20577;-75
2022/09/26 06:43:04;;;;;;;19.08;17.95;;;14.00;75.00;;;;;;5034120;28;20033;-75
2022/09/26 06:45:30;;;;;;;19.20;18.08;;;14.00;75.00;;;;;;5049684;28;20029;-76
2022/09/26 06:48:00;;;;;;;19.50;18.25;;;13.90;75.10;;;;;;5044837;28;20034;-75
2022/09/26 06:50:26;;;;;;;19.38;18.13;;;13.90;75.30;;;;;;5032595;28;20040;-75
2022/09/26 06:52:52;;;;;;;17.92;16.77;;;13.80;75.50;;;;;;5033978;28;20482;-75
2022/09/26 06:55:18;;;;;;;17.70;16.63;;;13.80;75.70;;;;;;5032678;28;20040;-75
2022/09/26 06:57:44;;;;;;;17.52;16.60;;;13.80;75.80;;;;;;5033681;28;20390;-75
2022/09/26 07:00:12;;;;;;;16.85;15.93;;;13.80;75.60;;;;;;5031837;28;20034;-76
2022/09/26 07:02:44;;;;;;;17.42;16.45;;;13.80;75.60;;;;;;5033781;28;20017;-76
2022/09/26 07:05:10;;;;;;;17.60;16.67;;;13.80;75.50;;;;;;5016550;28;20033;-75
2022/09/26 07:07:41;;;;;;;17.45;16.45;;;13.90;75.30;;;;;;5033608;28;20045;-75
2022/09/26 07:10:07;;;;;;;17.80;16.88;;;13.90;75.50;;;;;;5016242;28;20029;-75
2022/09/26 07:12:36;;;;;;;17.70;16.67;;;13.90;75.40;;;;;;5015836;28;20037;-76
2022/09/26 07:15:03;;;;;;;17.23;16.27;;;13.90;75.30;;;;;;5032529;28;20033;-76
2022/09/26 07:17:29;;;;;;;17.48;16.30;;;13.90;75.20;;;;;;5015640;28;20022;-75
2022/09/26 07:19:55;;;;;;;17.67;16.40;;;13.90;75.50;;;;;;5031947;28;20048;-76
2022/09/26 07:22:21;;;;;;;17.83;16.80;;;13.80;75.80;;;;;;5031882;28;20025;-75
2022/09/26 07:24:49;;;;;;;17.30;16.23;;;13.90;75.70;;;;;;5015494;28;20037;-75
2022/09/26 07:27:16;;;;;;;17.33;16.30;;;13.90;75.20;;;;;;5033087;28;20036;-75
2022/09/26 07:29:46;;;;;;;17.13;16.02;;;13.90;75.30;;;;;;5015180;28;20045;-75
2022/09/26 07:32:12;;;;;;;17.63;16.45;;;13.90;75.20;;;;;;5047515;28;20059;-75
2022/09/26 07:34:39;;;;;;;18.08;17.13;;;13.90;75.20;;;;;;5047614;28;20033;-75
2022/09/26 07:37:06;;;;;;;19.40;18.30;;;14.00;75.20;;;;;;5032675;28;20479;-75
2022/09/26 07:39:32;;;;;;;22.58;21.27;;;14.00;75.30;;;;;;5032848;28;20036;-78
2022/09/26 07:42:02;;;;;;;22.67;21.33;;;14.00;74.80;;;;;;5048196;28;20030;-75
2022/09/26 07:44:28;;;;;;;24.17;22.73;;;14.00;74.60;;;;;;5040468;28;20041;-76
2022/09/26 07:52:24;;;;;;;22.55;21.25;;;14.20;74.00;;;;;;5032321;28;20032;-75
2022/09/26 07:54:51;;;;;;;23.55;22.15;;;14.20;73.80;;;;;;5031506;28;20038;-76
2022/09/26 07:57:18;;;;;;;23.67;22.38;;;14.20;73.70;;;;;;5031350;28;20572;-76
2022/09/26 07:59:44;;;;;;;25.95;24.42;;;14.20;73.70;;;;;;5030916;28;20037;-75
2022/09/26 08:02:22;;;;;;;26.23;24.83;;;14.20;74.00;;;;;;5047844;28;20033;-75
2022/09/26 08:04:48;;;;;;;25.63;23.92;;;14.30;73.50;;;;;;5014655;28;20045;-76
2022/09/26 08:07:15;;;;;;;24.25;22.83;;;14.40;73.30;;;;;;5014912;28;20405;-76
2022/09/26 08:09:41;;;;;;;24.70;23.40;;;14.30;73.30;;;;;;5014966;28;20037;-76
2022/09/26 08:12:07;;;;;;;18.98;17.85;;;14.40;73.30;;;;;;5031157;28;20036;-75
2022/09/26 08:14:33;;;;;;;18.70;17.60;;;14.40;73.10;;;;;;5030869;28;20405;-75
2022/09/26 08:16:59;;;;;;;18.88;17.73;;;14.50;72.80;;;;;;5031708;28;20039;-76
2022/09/26 08:19:25;;;;;;;19.92;18.80;;;14.50;72.70;;;;;;5032305;28;20410;-76
2022/09/26 08:21:52;;;;;;;21.52;20.17;;;14.60;72.70;;;;;;5030962;28;20037;-76
2022/09/26 08:24:18;;;;;;;21.90;20.65;;;14.60;72.90;;;;;;5032176;28;20046;-75
2022/09/26 08:26:44;;;;;;;19.98;18.63;;;14.70;73.70;;;;;;5031004;28;20030;-76
2022/09/26 08:29:11;;;;;;;20.00;18.70;;;14.80;72.60;;;;;;5031520;28;20037;-75
2022/09/26 08:31:37;;;;;;;19.48;17.95;;;14.80;72.70;;;;;;5063344;28;20049;-76
2022/09/26 08:34:05;;;;;;;19.63;18.52;;;14.70;73.10;;;;;;5064175;28;20037;-75
2022/09/26 08:36:31;;;;;;;20.88;19.60;;;14.80;73.40;;;;;;5063819;28;20386;-76
2022/09/26 08:38:58;;;;;;;19.70;18.60;;;14.80;73.70;;;;;;5063534;28;20045;-76
2022/09/26 08:41:37;;;;;;;20.83;19.63;;;14.90;73.90;;;;;;5031743;28;20029;-76
2022/09/26 08:44:28;;;;;;;21.77;20.08;;;14.90;74.10;;;;;;5036913;28;20029;-76
2022/09/26 08:47:03;;;;;;;20.85;19.70;;;15.00;73.80;;;;;;5051179;28;20470;-76
2022/09/26 08:49:35;;;;;;;22.63;21.40;;;15.00;74.10;;;;;;4995294;28;20053;-76
2022/09/26 08:52:03;;;;;;;23.38;22.02;;;14.90;74.50;;;;;;5012079;28;20126;-76
2022/09/26 08:54:40;;;;;;;24.48;22.90;;;15.00;74.80;;;;;;5010839;28;20049;-76
2022/09/26 08:57:51;;;;;;;24.05;22.35;;;15.10;74.80;;;;;;5010241;28;20034;-76
2022/09/26 09:00:23;;;;;;;23.42;21.73;;;15.10;75.10;;;;;;5017202;28;20394;-76
2022/09/26 09:03:11;;;;;;;23.55;21.80;;;15.10;75.20;;;;;;5029011;28;20029;-76
2022/09/26 09:05:58;;;;;;;24.73;22.77;;;15.20;75.40;;;;;;5029236;28;20037;-76
2022/09/26 09:08:34;;;;;;;23.90;22.45;;;15.20;75.50;;;;;;5028420;28;20036;-76
2022/09/26 09:11:23;;;;;;;22.73;21.27;;;15.20;75.60;;;;;;5027860;28;20044;-76
2022/09/26 09:13:59;;;;;;;25.40;23.80;;;15.20;75.80;;;;;;5025813;28;20037;-75
2022/09/26 09:17:01;;;;;;;21.50;20.00;;;15.30;75.60;;;;;;5028400;28;20144;-76
2022/09/26 09:19:49;;;;;;;18.10;16.88;;;15.40;75.30;;;;;;5029020;28;20041;-75
2022/09/26 09:22:22;;;;;;;18.40;17.20;;;15.40;75.10;;;;;;5028063;28;20033;-76
2022/09/26 09:25:02;;;;;;;18.70;17.60;;;15.50;74.90;;;;;;5028865;28;20045;-76
2022/09/26 09:27:43;;;;;;;16.10;14.95;;;15.70;74.80;;;;;;5028616;28;20040;-76
2022/09/26 09:30:23;;;;;;;17.35;16.15;;;15.70;74.40;;;;;;5008817;28;20196;-75
2022/09/26 09:33:07;;;;;;;16.40;15.30;;;15.70;74.20;;;;;;5026734;28;20026;-75
2022/09/26 09:35:37;;;;;;;16.65;15.43;;;15.70;73.90;;;;;;5011393;28;20022;-76
2022/09/26 09:38:05;;;;;;;17.83;16.33;;;15.80;74.30;;;;;;5010276;28;20022;-75
2022/09/26 09:40:34;;;;;;;16.63;15.55;;;15.80;74.20;;;;;;5028520;28;20046;-76
2022/09/26 09:43:33;;;;;;;17.75;16.55;;;15.90;73.90;;;;;;5029767;28;20026;-76
2022/09/26 09:46:04;;;;;;;18.73;17.23;;;15.90;73.60;;;;;;5005499;28;20042;-76
2022/09/26 09:48:30;;;;;;;;;;;15.90;73.60;;;;;;5022228;28;20398;-75
2022/09/26 09:51:12;;;;;;;16.45;15.40;;;15.90;73.60;;;;;;5031002;28;19917;-75
2022/09/26 09:53:48;;;;;;;17.50;16.48;;;15.90;73.70;;;;;;5014107;28;20028;-76
2022/09/26 09:56:14;;;;;;;18.58;17.33;;;16.00;73.70;;;;;;5029370;28;20030;-76
2022/09/26 09:59:14;;;;;;;18.55;17.33;;;16.20;73.30;;;;;;5031934;28;20028;-76
2022/09/26 10:01:41;;;;;;;18.87;17.57;;;16.30;72.60;;;;;;5033269;28;20140;-76
2022/09/26 10:04:35;;;;;;;18.45;17.30;;;16.40;72.00;;;;;;5017075;28;20040;-76
2022/09/26 10:07:04;;;;;;;19.95;18.90;;;16.50;71.90;;;;;;5034586;28;20466;-75
2022/09/26 10:09:36;;;;;;;21.05;19.63;;;16.60;71.30;;;;;;5017162;28;20022;-76
2022/09/26 10:12:15;;;;;;;19.85;18.65;;;16.60;71.60;;;;;;5017432;28;20042;-76
2022/09/26 10:15:01;;;;;;;21.50;20.23;;;16.70;71.40;;;;;;5018486;28;20029;-76
2022/09/26 10:17:28;;;;;;;22.10;20.92;;;16.80;71.10;;;;;;5034089;28;20032;-76
2022/09/26 10:19:54;;;;;;;21.77;20.48;;;16.80;70.70;;;;;;5034360;28;20056;-76
2022/09/26 10:22:36;;;;;;;23.55;21.77;;;16.80;71.00;;;;;;5034452;28;20036;-76
2022/09/26 10:25:07;;;;;;;23.88;22.17;;;16.80;71.10;;;;;;5017870;28;20035;-75
2022/09/26 10:27:37;;;;;;;29.20;27.38;;;16.90;70.80;;;;;;5016216;28;20040;-75
2022/09/26 10:30:18;;;;;;;27.45;25.58;;;16.90;70.50;;;;;;5049471;28;20048;-76
2022/09/26 10:32:49;;;;;;;23.80;22.35;;;16.90;70.10;;;;;;5034343;28;20021;-75
2022/09/26 10:35:24;;;;;;;21.75;20.45;;;16.90;70.60;;;;;;5049550;28;20379;-75
2022/09/26 10:38:05;;;;;;;22.40;20.95;;;16.90;70.80;;;;;;5065577;28;20040;-76
2022/09/26 10:40:44;;;;;;;;;;;16.90;70.70;;;;;;5049587;28;20037;-75
2022/09/26 10:43:24;;;;;;;22.25;20.95;;;16.90;71.00;;;;;;5032982;28;19924;-76
2022/09/26 10:45:53;;;;;;;20.25;19.10;;;16.90;70.90;;;;;;5052015;28;20036;-76
2022/09/26 10:48:25;;;;;;;21.77;20.38;;;16.90;70.90;;;;;;5041721;28;20056;-76
2022/09/26 10:50:51;;;;;;;21.02;19.75;;;16.90;70.80;;;;;;5032690;28;20394;-76
2022/09/26 10:53:19;;;;;;;22.13;20.52;;;17.00;71.40;;;;;;5015993;28;20030;-78
2022/09/26 10:55:55;;;;;;;24.63;23.10;;;17.00;71.20;;;;;;4999883;28;20041;-75
2022/09/26 10:58:22;;;;;;;20.60;19.40;;;17.10;71.30;;;;;;5032499;28;20040;-76
2022/09/26 11:00:50;;;;;;;19.63;18.38;;;17.10;71.70;;;;;;5032074;28;20032;-76
2022/09/26 11:03:23;;;;;;;20.60;19.30;;;17.10;73.80;;;;;;5032418;28;20037;-76
2022/09/26 11:05:55;;;;;;;21.70;19.80;;;17.10;74.70;;;;;;5015969;28;20097;-76
2022/09/26 11:08:28;;;;;;;21.85;20.55;;;17.10;74.30;;;;;;5032038;28;20360;-76
2022/09/26 11:10:58;;;;;;;20.48;19.38;;;17.10;74.00;;;;;;5016648;28;20029;-75
2022/09/26 11:13:29;;;;;;;21.55;20.27;;;17.00;74.00;;;;;;5016356;28;20021;-75
2022/09/26 11:15:59;;;;;;;21.85;20.30;;;17.00;73.80;;;;;;5015156;28;20029;-76
2022/09/26 11:18:48;;;;;;;19.67;18.63;;;17.00;73.30;;;;;;5032397;28;20028;-76
2022/09/26 11:21:21;;;;;;;19.65;18.55;;;17.00;73.60;;;;;;5031806;28;20416;-75
2022/09/26 11:24:10;;;;;;;20.02;18.73;;;17.00;74.00;;;;;;4999973;28;20053;-75
2022/09/26 11:26:39;;;;;;;18.38;17.38;;;17.00;74.70;;;;;;5032020;28;20474;-76
2022/09/26 11:29:13;;;;;;;18.08;17.05;;;17.00;75.10;;;;;;5032972;28;20033;-75
2022/09/26 11:31:41;;;;;;;17.95;17.05;;;17.00;75.40;;;;;;5032713;28;20033;-75
2022/09/26 11:34:12;;;;;;;19.55;18.35;;;17.00;75.30;;;;;;5015736;28;20032;-76
2022/09/26 11:37:11;;;;;;;19.48;18.17;;;17.00;75.40;;;;;;5015522;28;20410;-76
2022/09/26 11:39:57;;;;;;;28.15;26.38;;;17.00;76.60;;;;;;5032723;28;20053;-75
2022/09/26 11:42:27;;;;;;;33.75;31.65;;;17.00;77.80;;;;;;5031581;28;20029;-75
2022/09/26 11:44:58;;;;;;;30.02;28.38;;;17.00;79.30;;;;;;5043286;28;20040;-76
2022/09/26 11:47:43;;;;;;;22.90;21.63;;;16.90;80.00;;;;;;5049417;28;20401;-75
2022/09/26 11:50:22;;;;;;;19.20;17.73;;;16.80;80.00;;;;;;5032427;28;20048;-76
2022/09/26 11:53:03;;;;;;;17.20;16.20;;;16.80;81.10;;;;;;5031652;28;20034;-75
2022/09/26 11:55:34;;;;;;;;;;;16.80;82.20;;;;;;5033022;28;20044;-76
2022/09/26 11:58:21;;;;;;;17.35;16.35;;;16.80;82.60;;;;;;5015095;28;19912;-75
2022/09/26 12:01:06;;;;;;;18.52;17.40;;;16.80;83.80;;;;;;5017069;28;20041;-75
2022/09/26 12:03:48;;;;;;;19.92;18.73;;;16.70;84.70;;;;;;5033054;28;20033;-75
2022/09/26 12:06:24;;;;;;;18.63;17.23;;;16.60;85.70;;;;;;5031114;28;20041;-75
2022/09/26 12:09:11;;;;;;;18.33;17.20;;;16.70;84.60;;;;;;5031147;28;20022;-75
2022/09/26 12:11:52;;;;;;;19.08;18.08;;;16.80;84.20;;;;;;5032209;28;20029;-75
2022/09/26 12:14:34;;;;;;;21.47;19.97;;;16.80;84.10;;;;;;5032221;28;20025;-75
2022/09/26 12:17:24;;;;;;;19.95;18.77;;;16.80;84.30;;;;;;5031680;28;20048;-76
2022/09/26 12:19:58;;;;;;;20.75;19.40;;;16.80;84.40;;;;;;5024009;28;20045;-75
2022/09/26 12:22:47;;;;;;;20.25;19.08;;;16.90;84.70;;;;;;5014062;28;20037;-76
2022/09/26 12:25:46;;;;;;;23.45;22.05;;;16.90;85.40;;;;;;5015222;28;20038;-75
2022/09/26 12:28:22;;;;;;;20.92;19.75;;;16.80;85.80;;;;;;5030718;28;20352;-75
2022/09/26 12:30:50;;;;;;;18.73;17.65;;;16.80;87.40;;;;;;5061959;28;20040;-75
2022/09/26 12:33:26;;;;;;;21.35;20.25;;;16.70;88.50;;;;;;5032214;28;20034;-75
2022/09/26 12:36:17;;;;;;;27.10;25.23;;;16.60;89.90;;;;;;5031898;28;20037;-75
2022/09/26 12:39:08;;;;;;;19.20;18.20;;;16.50;90.20;;;;;;5031788;28;20021;-75
2022/09/26 12:41:36;;;;;;;18.08;16.88;;;16.50;90.80;;;;;;5058778;28;20475;-75
2022/09/26 12:44:21;;;;;;;17.60;16.58;;;16.50;90.80;;;;;;5036534;28;20021;-75
2022/09/26 12:47:12;;;;;;;16.55;15.55;;;16.40;91.40;;;;;;5051220;28;20041;-75
2022/09/26 12:50:05;;;;;;;15.10;14.27;;;16.40;91.50;;;;;;5011877;28;20057;-75
2022/09/26 12:53:00;;;;;;;16.63;15.65;;;16.30;91.80;;;;;;5011945;28;20036;-75
2022/09/26 12:56:06;;;;;;;21.90;20.63;;;16.30;91.90;;;;;;5011297;28;20050;-75
2022/09/26 12:58:54;;;;;;;16.77;15.48;;;16.30;92.10;;;;;;5010422;28;20030;-75
2022/09/26 13:01:43;;;;;;;15.88;14.75;;;16.40;92.20;;;;;;5010208;28;20045;-75
2022/09/26 13:04:28;;;;;;;30.83;28.90;;;16.40;92.10;;;;;;5010342;28;20045;-75
2022/09/26 13:06:57;;;;;;;35.17;32.67;;;16.30;92.50;;;;;;5010444;28;20472;-75